Time;durP1;ratioP1;P1;durP2;ratioP2;P2;SDS_P1;SDS_P2;PMS_P1;PMS_P2;Temp;Humidity;BMP_temperature;BMP_pressure;BME280_temperature;BME280_humidity;BME280_pressure;Samples;Min_cycle;Max_cycle;Signal;HPM_P1;HPM_P2
2021/08/25 07:28:48;;;;;;;;;;;;;;;;;;;;;
2021/08/25 07:35:50;;;;;;;;;;;;;;;;;;;;;
2021/08/25 08:08:06;;;;;;;14.80;6.03;;;17.80;99.90;;;;;;6153420;23;20063;-77
2021/08/25 09:33:04;;;;;;;8.18;4.22;;;21.10;99.90;;;;;;6198802;22;20052;-78
2021/08/25 09:35:42;;;;;;;8.13;4.15;;;21.20;99.90;;;;;;6208256;23;20024;-74
2021/08/25 14:01:28;;;;;;;4.60;2.78;;;25.10;99.90;;;;;;6185132;22;20063;31
2021/08/25 14:06:55;;;;;;;6.90;2.67;;;25.10;99.90;;;;;;6010960;22;19926;-81
2021/08/25 14:20:31;;;;;;;6.70;2.67;;;25.10;99.90;;;;;;6168600;23;20688;-81
2021/08/25 14:22:59;;;;;;;5.30;2.88;;;25.10;99.90;;;;;;6155937;23;20028;-80
2021/08/25 14:25:33;;;;;;;8.65;3.00;;;25.20;99.90;;;;;;6155177;23;20064;-80
2021/08/25 14:28:00;;;;;;;5.35;2.95;;;25.10;99.90;;;;;;6155300;23;20077;-78
2021/08/25 14:30:27;;;;;;;6.97;3.13;;;25.10;99.90;;;;;;6154854;23;20025;-76
2021/08/25 14:32:54;;;;;;;4.97;2.65;;;25.10;99.90;;;;;;6158098;23;20075;-77
2021/08/25 14:35:30;;;;;;;5.50;3.05;;;25.10;99.90;;;;;;6141882;23;20021;-76
2021/08/25 14:37:57;;;;;;;6.35;3.15;;;25.10;99.90;;;;;;6129309;23;20025;-76
2021/08/25 14:40:24;;;;;;;5.40;2.90;;;25.10;99.90;;;;;;6128264;23;20017;-76
2021/08/25 14:42:51;;;;;;;4.97;2.90;;;25.10;99.90;;;;;;6129146;23;20029;-78
2021/08/25 14:45:18;;;;;;;4.03;2.90;;;25.10;99.90;;;;;;6127666;23;20465;-78
2021/08/25 14:47:45;;;;;;;4.68;2.72;;;25.00;99.90;;;;;;6129283;23;20018;-78
2021/08/25 14:50:12;;;;;;;5.85;2.55;;;25.00;99.90;;;;;;6128901;23;20021;-77
2021/08/25 14:52:39;;;;;;;7.47;2.83;;;25.00;99.90;;;;;;6130143;23;20024;-77
2021/08/25 14:55:06;;;;;;;4.57;2.45;;;25.00;99.90;;;;;;6129604;23;20021;-81
2021/08/25 14:57:33;;;;;;;4.82;2.40;;;25.10;99.90;;;;;;6129185;23;20032;-76
2021/08/25 15:00:01;;;;;;;3.70;2.60;;;25.10;99.90;;;;;;6129041;23;20025;-78
2021/08/25 15:02:28;;;;;;;5.73;2.60;;;25.10;99.90;;;;;;6127241;23;20025;-79
2021/08/25 15:04:55;;;;;;;3.95;2.70;;;25.10;99.90;;;;;;6128679;23;20300;-79
2021/08/25 15:07:22;;;;;;;5.00;2.90;;;25.10;99.90;;;;;;6127688;23;20450;-78
2021/08/25 15:09:50;;;;;;;7.63;3.08;;;25.10;99.90;;;;;;6128599;23;20010;-78
2021/08/25 15:12:17;;;;;;;3.77;2.30;;;25.10;99.90;;;;;;6127440;23;20033;-78
2021/08/25 15:14:44;;;;;;;5.90;2.35;;;25.00;99.90;;;;;;6128480;23;20021;-78
2021/08/25 15:17:11;;;;;;;3.35;2.40;;;25.00;99.80;;;;;;6127487;23;20018;-80
2021/08/25 15:19:38;;;;;;;8.20;2.40;;;24.90;99.70;;;;;;6128222;23;20033;-78
2021/08/25 15:22:05;;;;;;;4.50;2.42;;;24.90;99.80;;;;;;6127599;23;20418;-80
2021/08/25 15:24:33;;;;;;;5.10;2.67;;;24.90;99.80;;;;;;6128523;23;20017;-80
2021/08/25 15:27:01;;;;;;;4.07;2.88;;;24.80;99.90;;;;;;6129041;23;20021;-81
2021/08/25 15:29:32;;;;;;;5.78;2.50;;;24.80;99.60;;;;;;6127864;23;20028;-80
2021/08/25 15:31:59;;;;;;;3.97;2.50;;;24.80;99.60;;;;;;6128743;23;20021;-78
2021/08/25 15:34:26;;;;;;;3.95;2.47;;;24.80;99.30;;;;;;6127534;23;20021;-81
2021/08/25 15:36:53;;;;;;;4.82;2.80;;;24.80;99.40;;;;;;6128870;23;20028;-78
2021/08/25 15:39:20;;;;;;;5.55;2.35;;;24.80;99.20;;;;;;6127718;23;20018;-76
2021/08/25 15:41:52;;;;;;;3.40;2.47;;;24.80;99.10;;;;;;6104383;23;20021;-79
2021/08/25 15:44:19;;;;;;;5.05;2.78;;;24.80;99.20;;;;;;6128071;23;20013;-78
2021/08/25 15:46:46;;;;;;;5.32;2.67;;;24.80;99.20;;;;;;6128566;23;20018;-78
2021/08/25 15:49:13;;;;;;;6.13;2.97;;;24.80;99.10;;;;;;6127705;23;20025;-75
2021/08/25 15:51:40;;;;;;;6.15;3.17;;;24.70;98.90;;;;;;6128113;23;20018;-78
2021/08/25 15:54:08;;;;;;;7.88;3.08;;;24.60;98.90;;;;;;6127574;23;20022;-78
2021/08/25 15:56:36;;;;;;;4.97;2.70;;;24.60;99.00;;;;;;6127974;23;20018;-79
2021/08/25 15:59:03;;;;;;;5.05;2.75;;;24.60;99.00;;;;;;6128514;23;20022;-79
2021/08/25 16:01:34;;;;;;;5.00;3.50;;;24.60;99.10;;;;;;6157412;23;20024;-79
2021/08/25 17:21:15;;;;;;;8.10;4.05;;;23.50;99.90;;;;;;6089313;22;20388;-79
2021/08/25 17:24:01;;;;;;;6.90;3.92;;;23.50;99.90;;;;;;6066746;23;20022;-79
2021/08/25 17:26:29;;;;;;;7.13;3.90;;;23.40;99.90;;;;;;6065351;23;20062;-78
2021/08/25 17:29:09;;;;;;;8.35;3.90;;;23.40;99.90;;;;;;6030744;23;20098;-79
2021/08/25 17:31:47;;;;;;;9.35;3.95;;;23.30;99.90;;;;;;6092428;23;20040;-78
2021/08/25 17:34:16;;;;;;;8.65;3.97;;;23.20;99.90;;;;;;6065025;23;20468;-80
2021/08/25 17:41:35;;;;;;;;;;;;;;;;;;;;;
2021/08/25 19:06:23;;;;;;;10.70;4.78;;;20.90;99.90;;;;;;6172693;22;20024;-79
